Time;durP1;ratioP1;P1;durP2;ratioP2;P2;SDS_P1;SDS_P2;PMS_P1;PMS_P2;Temp;Humidity;BMP_temperature;BMP_pressure;BME280_temperature;BME280_humidity;BME280_pressure;Samples;Min_cycle;Max_cycle;Signal;HPM_P1;HPM_P2
2023/07/09 00:02:15;;;;;;;23.58;21.08;;;15.70;99.90;;;;;;4845396;29;20136;-76
2023/07/09 00:04:42;;;;;;;27.70;24.70;;;15.70;99.90;;;;;;4844178;29;20106;-75
2023/07/09 00:07:31;;;;;;;26.67;23.90;;;15.70;99.90;;;;;;4843671;29;20050;-77
2023/07/09 00:09:59;;;;;;;27.63;24.52;;;15.50;99.90;;;;;;4814107;29;20054;-74
2023/07/09 00:12:28;;;;;;;22.23;18.95;;;15.50;99.90;;;;;;4837068;29;20080;-75
2023/07/09 00:14:56;;;;;;;23.63;18.17;;;15.40;99.90;;;;;;4847493;29;20045;-76
2023/07/09 00:17:28;;;;;;;17.98;13.85;;;15.40;1.00;;;;;;4848216;29;20056;-76
2023/07/09 00:19:56;;;;;;;18.17;13.52;;;15.60;1.00;;;;;;4844602;29;20065;-77
2023/07/09 00:22:26;;;;;;;16.40;14.57;;;15.60;99.90;;;;;;4844135;29;20530;-76
2023/07/09 00:24:56;;;;;;;24.02;18.35;;;15.70;1.00;;;;;;4843361;29;20038;-75
2023/07/09 00:27:29;;;;;;;17.13;14.10;;;15.70;1.00;;;;;;4843430;29;20052;-76
2023/07/09 00:29:57;;;;;;;15.43;12.75;;;15.70;1.00;;;;;;4845340;29;20037;-77
2023/07/09 00:32:25;;;;;;;16.40;11.90;;;15.60;1.00;;;;;;4845733;29;20042;-77
2023/07/09 00:34:54;;;;;;;16.08;11.13;;;15.60;1.00;;;;;;4844344;29;20129;-75
2023/07/09 00:37:26;;;;;;;13.98;10.30;;;15.60;1.00;;;;;;4848100;29;20037;-75
2023/07/09 00:39:54;;;;;;;12.77;9.48;;;15.60;1.00;;;;;;4841231;29;20042;-76
2023/07/09 00:42:23;;;;;;;15.07;8.90;;;15.50;1.00;;;;;;4828263;29;20094;-75
2023/07/09 00:44:54;;;;;;;11.93;7.88;;;15.50;20.60;;;;;;4842787;29;20050;-78
2023/07/09 00:47:41;;;;;;;10.13;7.57;;;15.40;99.90;;;;;;4825445;29;20042;-76
2023/07/09 00:50:21;;;;;;;13.00;8.77;;;15.50;99.90;;;;;;4834667;29;20118;-76
2023/07/09 00:52:55;;;;;;;15.45;9.30;;;15.30;99.90;;;;;;4833110;29;20046;-76
2023/07/09 00:55:28;;;;;;;10.98;8.13;;;15.30;99.90;;;;;;4847105;29;20042;-78
2023/07/09 00:58:03;;;;;;;13.45;8.88;;;15.40;99.90;;;;;;4829528;29;20106;-77
2023/07/09 01:00:42;;;;;;;10.98;7.70;;;15.40;99.90;;;;;;4826925;29;20571;-78
2023/07/09 01:03:12;;;;;;;14.00;7.65;;;15.30;99.90;;;;;;4845154;29;20060;-76
2023/07/09 01:05:41;;;;;;;12.45;8.27;;;15.20;99.90;;;;;;4848006;29;20037;-75
2023/07/09 01:08:12;;;;;;;10.70;8.18;;;15.20;99.90;;;;;;4845417;29;20614;-77
2023/07/09 01:10:40;;;;;;;12.38;9.13;;;15.20;99.90;;;;;;4830427;29;20089;-76
2023/07/09 01:13:09;;;;;;;9.43;7.22;;;15.20;99.90;;;;;;4845856;29;20125;-74
2023/07/09 01:15:37;;;;;;;11.68;7.40;;;15.20;99.90;;;;;;4828474;29;20050;-75
2023/07/09 01:18:05;;;;;;;14.35;7.40;;;15.10;99.90;;;;;;4842889;29;20119;-74
2023/07/09 01:20:33;;;;;;;12.60;7.50;;;15.00;1.00;;;;;;4840966;29;20053;-76
2023/07/09 01:23:01;;;;;;;10.48;7.57;;;14.90;1.00;;;;;;4843855;29;20053;-75
2023/07/09 01:25:29;;;;;;;11.25;8.02;;;15.00;1.00;;;;;;4857856;29;20042;-76
2023/07/09 01:27:57;;;;;;;12.48;7.35;;;15.10;1.00;;;;;;4839838;29;20318;-77
2023/07/09 01:30:34;;;;;;;11.55;8.32;;;14.90;1.00;;;;;;4872849;29;20078;-77
2023/07/09 01:33:02;;;;;;;9.68;7.88;;;14.90;1.00;;;;;;4807534;29;1282820;-76
2023/07/09 01:35:32;;;;;;;10.60;7.32;;;14.80;1.00;;;;;;4856747;29;20054;-75
2023/07/09 01:38:01;;;;;;;10.57;7.68;;;14.70;1.00;;;;;;4856306;29;20042;-77
2023/07/09 01:40:30;;;;;;;12.13;7.25;;;14.60;1.00;;;;;;4857481;29;20038;-78
2023/07/09 01:42:59;;;;;;;10.40;7.13;;;14.60;1.00;;;;;;4858969;29;20050;-77
2023/07/09 01:45:28;;;;;;;11.63;6.82;;;14.60;1.00;;;;;;4825104;29;20039;-74
2023/07/09 01:47:56;;;;;;;10.07;6.82;;;14.60;1.00;;;;;;4829017;29;20081;-76
2023/07/09 01:50:24;;;;;;;9.27;7.15;;;14.60;26.40;;;;;;4809616;29;20046;-79
2023/07/09 01:52:53;;;;;;;11.25;6.82;;;14.60;1.00;;;;;;4826173;29;20500;-75
2023/07/09 01:55:22;;;;;;;8.45;6.40;;;14.70;1.00;;;;;;4825655;29;20054;-78
2023/07/09 01:57:51;;;;;;;12.05;7.63;;;14.60;1.00;;;;;;4812418;29;20046;-77
2023/07/09 02:00:19;;;;;;;9.68;6.30;;;14.60;1.00;;;;;;4810019;29;20507;-78
2023/07/09 02:02:50;;;;;;;9.27;6.78;;;14.60;1.00;;;;;;4842420;29;20055;-76
2023/07/09 02:05:19;;;;;;;13.55;7.65;;;14.60;1.00;;;;;;4846518;29;20404;-76
2023/07/09 02:07:47;;;;;;;9.88;7.40;;;14.50;1.00;;;;;;4829280;29;20514;-78
2023/07/09 02:10:16;;;;;;;12.10;7.40;;;14.50;1.00;;;;;;4844527;29;20092;-77
2023/07/09 02:12:45;;;;;;;10.73;7.85;;;14.60;1.00;;;;;;4827122;29;20062;-76
2023/07/09 02:15:13;;;;;;;9.25;6.65;;;14.60;1.00;;;;;;4834048;29;20070;-76
2023/07/09 02:17:41;;;;;;;10.35;7.10;;;14.60;1.00;;;;;;4852646;29;20042;-77
2023/07/09 02:20:10;;;;;;;13.00;7.32;;;14.70;1.00;;;;;;4827773;29;22155;-77
2023/07/09 02:22:39;;;;;;;8.77;7.32;;;14.70;1.00;;;;;;4827464;29;20050;-76
2023/07/09 02:25:08;;;;;;;9.32;6.72;;;14.70;1.00;;;;;;4842100;29;20045;-76
2023/07/09 02:27:37;;;;;;;10.07;7.05;;;14.60;1.00;;;;;;4843875;29;20468;-77
2023/07/09 02:30:07;;;;;;;9.38;7.13;;;14.60;1.00;;;;;;4845524;29;20193;-76
2023/07/09 02:32:35;;;;;;;8.02;6.55;;;14.60;1.00;;;;;;4844516;29;20046;-77
2023/07/09 02:35:02;;;;;;;9.57;7.00;;;14.70;1.00;;;;;;4827020;29;20045;-77
2023/07/09 02:37:30;;;;;;;11.10;6.18;;;14.70;1.00;;;;;;4844083;29;20097;-76
2023/07/09 02:39:58;;;;;;;8.00;6.55;;;14.70;1.00;;;;;;4828506;29;20054;-77
2023/07/09 02:42:26;;;;;;;7.55;6.35;;;14.60;1.00;;;;;;4828204;29;20073;-76
2023/07/09 02:44:54;;;;;;;10.57;7.18;;;14.50;1.00;;;;;;4826780;29;20058;-76
2023/07/09 02:47:26;;;;;;;9.95;7.40;;;14.40;1.00;;;;;;4812380;29;20054;-77
2023/07/09 02:49:55;;;;;;;11.50;7.13;;;14.30;1.00;;;;;;4809329;29;20057;-78
2023/07/09 02:52:22;;;;;;;10.25;7.93;;;14.30;1.00;;;;;;4809752;29;20050;-75
2023/07/09 02:54:50;;;;;;;11.45;6.88;;;14.20;1.00;;;;;;4829839;29;20118;-77
2023/07/09 02:57:18;;;;;;;8.60;7.18;;;14.20;99.90;;;;;;4838029;29;20042;-78
2023/07/09 02:59:45;;;;;;;9.82;6.85;;;14.20;76.30;;;;;;4822787;29;20065;-75
2023/07/09 03:02:13;;;;;;;11.13;7.18;;;14.30;1.00;;;;;;4831835;29;20050;-76
2023/07/09 03:04:42;;;;;;;11.80;6.45;;;14.30;22.00;;;;;;4841654;29;20046;-75
2023/07/09 03:07:09;;;;;;;8.15;6.47;;;14.40;99.90;;;;;;4857321;29;20061;-75
2023/07/09 03:09:37;;;;;;;10.52;6.93;;;14.40;99.90;;;;;;4856286;29;20053;-77
2023/07/09 03:12:06;;;;;;;11.90;6.80;;;14.40;38.20;;;;;;4850379;29;20049;-75
2023/07/09 03:14:34;;;;;;;10.57;6.68;;;14.40;54.40;;;;;;4836471;29;20092;-75
2023/07/09 03:17:01;;;;;;;10.73;6.57;;;14.50;10.00;;;;;;4848766;29;20118;-74
2023/07/09 03:19:30;;;;;;;11.80;6.60;;;14.40;1.00;;;;;;4844742;29;20057;-77
2023/07/09 03:21:58;;;;;;;11.15;6.80;;;14.50;1.00;;;;;;4854835;29;20042;-75
2023/07/09 03:24:26;;;;;;;12.10;7.25;;;14.50;1.00;;;;;;4858229;29;20137;-74
2023/07/09 03:26:53;;;;;;;11.48;7.10;;;14.50;1.00;;;;;;4825990;29;20086;-74
2023/07/09 03:29:21;;;;;;;11.45;7.32;;;14.40;1.00;;;;;;4850661;29;20115;-77
2023/07/09 03:31:49;;;;;;;10.75;7.03;;;14.30;14.80;;;;;;4867395;29;20498;-78
2023/07/09 03:34:16;;;;;;;13.52;6.88;;;14.30;52.60;;;;;;4866513;29;20070;-77
2023/07/09 03:36:45;;;;;;;10.10;6.55;;;14.40;23.60;;;;;;4846883;29;20053;-76
2023/07/09 03:39:14;;;;;;;10.13;7.20;;;14.40;1.00;;;;;;4862199;29;20090;-77
2023/07/09 03:41:41;;;;;;;9.00;7.00;;;14.40;1.00;;;;;;4861095;29;20049;-77
2023/07/09 03:44:09;;;;;;;10.60;7.30;;;14.40;1.00;;;;;;4830038;29;20127;-78
2023/07/09 03:46:36;;;;;;;10.60;6.75;;;14.40;1.00;;;;;;4823747;29;20058;-75
2023/07/09 03:49:04;;;;;;;11.18;6.63;;;14.60;1.00;;;;;;4822738;29;20046;-77
2023/07/09 03:51:31;;;;;;;8.52;6.40;;;14.60;1.00;;;;;;4822849;29;20107;-76
2023/07/09 03:53:58;;;;;;;9.23;6.55;;;14.60;1.00;;;;;;4823079;29;20122;-80
2023/07/09 03:56:29;;;;;;;12.18;6.97;;;14.70;1.00;;;;;;4826536;29;20055;-76
2023/07/09 03:58:57;;;;;;;7.97;6.90;;;14.80;1.00;;;;;;4846452;29;20168;-77
2023/07/09 04:01:24;;;;;;;8.13;5.63;;;15.20;1.00;;;;;;4849523;29;20094;-76
2023/07/09 04:03:52;;;;;;;9.30;5.63;;;16.20;1.00;;;;;;4850144;29;20384;-77
2023/07/09 04:06:19;;;;;;;9.98;5.47;;;17.10;1.00;;;;;;4840988;29;20049;-77
2023/07/09 04:08:47;;;;;;;11.23;5.57;;;18.00;99.90;;;;;;4840417;29;20519;-79
2023/07/09 04:11:14;;;;;;;9.68;5.60;;;19.00;99.90;;;;;;4840130;29;20038;-75
2023/07/09 04:13:43;;;;;;;9.25;5.47;;;19.70;1.00;;;;;;4840947;29;20399;-77
2023/07/09 04:16:11;;;;;;;11.07;5.32;;;20.30;1.00;;;;;;4840192;29;20502;-77
2023/07/09 04:18:39;;;;;;;11.57;6.13;;;21.00;99.90;;;;;;4840236;29;20050;-77
2023/07/09 04:21:06;;;;;;;9.02;5.30;;;21.90;99.90;;;;;;4839871;29;20077;-77
2023/07/09 04:23:44;;;;;;;10.55;5.18;;;22.90;99.90;;;;;;5043839;27;20391;-77
2023/07/09 04:26:14;;;;;;;6.50;4.90;;;23.90;5.90;;;;;;5043471;28;20049;-77
2023/07/09 04:28:42;;;;;;;8.43;4.93;;;24.30;1.00;;;;;;5073010;27;20451;-77
2023/07/09 04:31:09;;;;;;;7.80;4.95;;;24.90;1.00;;;;;;5150570;27;20039;-77
2023/07/09 04:33:37;;;;;;;7.05;5.07;;;25.40;1.00;;;;;;5149527;27;20505;-78
2023/07/09 04:36:06;;;;;;;7.22;4.80;;;25.90;1.00;;;;;;5125003;27;20549;-77
2023/07/09 04:38:34;;;;;;;8.45;5.35;;;25.90;1.00;;;;;;5043564;28;20045;-78
2023/07/09 04:41:03;;;;;;;7.18;5.20;;;26.10;1.00;;;;;;5043477;28;20120;-79
2023/07/09 04:43:31;;;;;;;7.95;5.05;;;26.00;1.00;;;;;;5043548;28;20073;-76
2023/07/09 04:45:58;;;;;;;7.13;4.63;;;26.00;1.00;;;;;;5043539;27;20038;-75
2023/07/09 04:48:26;;;;;;;7.78;5.60;;;26.30;1.00;;;;;;5043289;28;20129;-75
2023/07/09 04:50:53;;;;;;;7.30;5.30;;;26.80;1.00;;;;;;5042837;28;20568;-77
2023/07/09 04:53:23;;;;;;;9.07;5.05;;;27.40;1.00;;;;;;5043524;27;20042;-75
2023/07/09 04:55:52;;;;;;;8.55;5.45;;;28.40;1.00;;;;;;5043027;28;20047;-75
2023/07/09 04:58:21;;;;;;;8.80;5.68;;;29.40;1.00;;;;;;5043158;27;20079;-77
2023/07/09 05:00:50;;;;;;;8.10;5.53;;;30.00;1.00;;;;;;5042608;27;20046;-76
2023/07/09 05:03:20;;;;;;;8.52;6.03;;;30.60;1.00;;;;;;5147827;27;20062;-76
2023/07/09 05:05:48;;;;;;;6.93;5.45;;;31.10;1.00;;;;;;5147773;27;20053;-76
2023/07/09 05:08:16;;;;;;;11.20;6.05;;;31.80;1.00;;;;;;5147905;27;20038;-77
2023/07/09 05:10:44;;;;;;;9.65;5.93;;;32.00;1.00;;;;;;5151460;27;20066;-77
2023/07/09 05:13:12;;;;;;;9.98;6.53;;;31.90;1.00;;;;;;5149906;27;20042;-78
2023/07/09 05:15:44;;;;;;;8.23;5.95;;;32.20;1.00;;;;;;5149768;27;20047;-75
2023/07/09 05:18:12;;;;;;;10.70;7.57;;;33.00;1.00;;;;;;5102810;27;20037;-77
2023/07/09 05:20:40;;;;;;;10.43;7.05;;;33.70;1.00;;;;;;5044098;28;20037;-76
2023/07/09 05:23:09;;;;;;;10.23;6.95;;;34.00;1.00;;;;;;5048501;28;20121;-76
2023/07/09 05:25:38;;;;;;;10.20;6.10;;;34.30;1.00;;;;;;5050563;28;20094;-77
2023/07/09 05:28:06;;;;;;;9.90;6.97;;;34.60;1.00;;;;;;5046166;27;20045;-76
2023/07/09 05:30:34;;;;;;;8.90;6.50;;;35.00;1.00;;;;;;5051793;28;20068;-78
2023/07/09 05:33:03;;;;;;;8.85;7.28;;;35.00;1.00;;;;;;5050407;28;20577;-76
2023/07/09 05:35:31;;;;;;;8.90;7.53;;;35.30;1.00;;;;;;5030950;28;20056;-76
2023/07/09 05:37:58;;;;;;;8.25;6.70;;;35.40;1.00;;;;;;5011089;28;20068;-76
2023/07/09 05:40:26;;;;;;;10.90;7.45;;;34.50;1.00;;;;;;5009766;28;20038;-76
2023/07/09 05:42:53;;;;;;;8.10;7.10;;;34.90;1.00;;;;;;5009455;28;20133;-77
2023/07/09 05:45:20;;;;;;;8.65;6.55;;;35.00;1.00;;;;;;5029572;28;20115;-79
2023/07/09 05:47:48;;;;;;;10.55;7.38;;;35.10;1.00;;;;;;5027491;28;20128;-79
2023/07/09 05:50:17;;;;;;;9.90;6.85;;;35.50;1.00;;;;;;5028955;28;20041;-78
2023/07/09 05:52:44;;;;;;;10.05;7.10;;;35.50;1.00;;;;;;5029377;28;20048;-75
2023/07/09 05:55:12;;;;;;;10.02;8.68;;;35.00;1.00;;;;;;5028938;27;20049;-75
2023/07/09 05:57:40;;;;;;;9.10;6.78;;;34.90;1.00;;;;;;5028907;27;20417;-77
2023/07/09 06:00:09;;;;;;;8.57;6.50;;;35.10;1.00;;;;;;5028334;27;20041;-76
2023/07/09 06:02:43;;;;;;;10.20;6.90;;;35.10;1.00;;;;;;5107511;27;20043;-77
2023/07/09 06:05:10;;;;;;;9.27;6.88;;;35.00;1.00;;;;;;5133093;27;20442;-74
2023/07/09 06:07:40;;;;;;;8.73;6.60;;;34.40;1.00;;;;;;5139425;27;20060;-77
2023/07/09 06:10:09;;;;;;;8.30;6.93;;;34.00;1.00;;;;;;5138466;27;20039;-75
2023/07/09 06:12:37;;;;;;;8.90;6.90;;;33.90;1.00;;;;;;5134371;27;20443;-74
2023/07/09 06:15:05;;;;;;;10.77;7.28;;;34.30;1.00;;;;;;5059253;27;20054;-79
2023/07/09 06:17:32;;;;;;;14.82;7.72;;;34.40;1.00;;;;;;5028625;28;20038;-76
2023/07/09 06:20:00;;;;;;;9.02;6.60;;;34.40;1.00;;;;;;5028342;28;20066;-77
2023/07/09 06:22:27;;;;;;;8.70;6.65;;;34.40;1.00;;;;;;5028503;28;20060;-76
2023/07/09 06:24:57;;;;;;;9.13;7.20;;;34.30;1.00;;;;;;5035134;28;20046;-78
2023/07/09 06:27:24;;;;;;;10.13;7.07;;;34.20;1.00;;;;;;5038690;28;20300;-77
2023/07/09 06:29:51;;;;;;;9.63;7.55;;;33.70;1.00;;;;;;5043185;27;20067;-77
2023/07/09 06:32:19;;;;;;;10.73;7.53;;;33.70;1.00;;;;;;5037887;28;20040;-76
2023/07/09 06:34:47;;;;;;;11.60;6.90;;;33.20;1.00;;;;;;5038555;28;20303;-76
2023/07/09 06:37:14;;;;;;;10.40;7.18;;;32.40;1.00;;;;;;5030455;28;20049;-76
2023/07/09 06:39:42;;;;;;;11.60;8.48;;;31.70;1.00;;;;;;5028959;28;20041;-77
2023/07/09 06:42:11;;;;;;;9.45;7.28;;;31.30;1.00;;;;;;5028756;28;20440;-77
2023/07/09 06:45:04;;;;;;;12.38;7.18;;;30.80;1.00;;;;;;5027766;28;20038;-75
2023/07/09 06:47:31;;;;;;;10.50;7.90;;;30.00;1.00;;;;;;5029109;28;20061;-78
2023/07/09 06:49:59;;;;;;;11.88;7.28;;;29.40;1.00;;;;;;5029483;28;20041;-78
2023/07/09 06:52:26;;;;;;;11.68;8.23;;;29.00;1.00;;;;;;5029507;27;20041;-77
2023/07/09 06:54:54;;;;;;;10.80;7.20;;;28.90;1.00;;;;;;5028506;28;20143;-76
2023/07/09 06:57:23;;;;;;;9.90;8.18;;;28.80;1.00;;;;;;5028597;28;20136;-78
2023/07/09 06:59:50;;;;;;;11.68;8.13;;;28.70;1.00;;;;;;5028248;28;20128;-77
2023/07/09 07:02:18;;;;;;;12.95;9.02;;;28.50;1.00;;;;;;5090436;27;20421;-79
2023/07/09 07:04:45;;;;;;;16.73;9.85;;;28.40;1.00;;;;;;5136349;27;20035;-76
2023/07/09 07:07:13;;;;;;;10.98;8.65;;;28.10;1.00;;;;;;5138138;27;20075;-76
2023/07/09 07:09:40;;;;;;;15.82;10.70;;;27.90;1.00;;;;;;5138600;27;20108;-77
2023/07/09 07:12:09;;;;;;;14.52;10.52;;;28.00;1.00;;;;;;5042757;28;20053;-75
2023/07/09 07:14:38;;;;;;;13.98;9.15;;;28.20;1.00;;;;;;5041221;28;20056;-78
2023/07/09 07:17:05;;;;;;;12.40;11.05;;;28.20;1.00;;;;;;5038854;28;20069;-74
2023/07/09 07:19:33;;;;;;;10.73;8.80;;;28.20;1.00;;;;;;5029817;28;20042;-75
2023/07/09 07:22:00;;;;;;;12.15;8.70;;;28.00;1.00;;;;;;5027698;28;20052;-75
2023/07/09 07:24:28;;;;;;;12.30;8.55;;;27.90;1.00;;;;;;5029649;27;20440;-75
2023/07/09 07:26:55;;;;;;;12.45;9.25;;;28.00;1.00;;;;;;5030920;28;20136;-78
2023/07/09 07:29:23;;;;;;;12.23;8.38;;;28.00;1.00;;;;;;5031216;28;20504;-77
2023/07/09 07:31:54;;;;;;;9.55;8.27;;;28.10;1.00;;;;;;5027746;28;20068;-74
2023/07/09 07:34:21;;;;;;;11.68;8.70;;;28.10;1.00;;;;;;5030028;28;20113;-75
2023/07/09 07:36:50;;;;;;;11.73;8.40;;;27.70;1.00;;;;;;5028761;28;20053;-74
2023/07/09 07:39:18;;;;;;;15.10;8.95;;;27.40;1.00;;;;;;5028841;28;20064;-77
2023/07/09 07:41:45;;;;;;;15.95;9.63;;;27.20;1.00;;;;;;5026730;28;20132;-77
2023/07/09 07:44:13;;;;;;;16.77;8.32;;;27.20;1.00;;;;;;5027722;28;20083;-78
2023/07/09 07:46:41;;;;;;;12.95;8.68;;;27.40;1.00;;;;;;5030163;28;20042;-77
2023/07/09 07:49:10;;;;;;;11.43;8.27;;;27.70;1.00;;;;;;5037958;28;20057;-77
2023/07/09 07:51:38;;;;;;;12.70;8.50;;;27.90;1.00;;;;;;5032153;27;20496;-80
2023/07/09 07:54:08;;;;;;;12.57;9.60;;;27.70;1.00;;;;;;5026888;28;20098;-75
2023/07/09 07:56:36;;;;;;;15.70;9.18;;;27.70;1.00;;;;;;5028106;28;20277;-77
2023/07/09 07:59:03;;;;;;;9.68;8.45;;;28.00;1.00;;;;;;5028050;28;20037;-76
2023/07/09 08:01:31;;;;;;;13.65;8.88;;;28.10;1.00;;;;;;5056444;27;20047;-74
2023/07/09 08:03:58;;;;;;;12.07;9.07;;;28.20;1.00;;;;;;5131889;27;20046;-75
2023/07/09 08:06:27;;;;;;;22.63;9.23;;;28.20;1.00;;;;;;5107801;27;20037;-76
2023/07/09 08:08:55;;;;;;;15.43;9.57;;;28.40;1.00;;;;;;5029825;28;20041;-76
2023/07/09 08:11:22;;;;;;;12.70;9.35;;;28.50;1.00;;;;;;5030261;28;20053;-76
2023/07/09 08:13:50;;;;;;;13.30;10.00;;;27.80;1.00;;;;;;5027438;28;20041;-75
2023/07/09 08:16:18;;;;;;;13.02;10.02;;;27.50;1.00;;;;;;5031813;28;20051;-78
2023/07/09 08:18:45;;;;;;;10.43;8.57;;;27.60;1.00;;;;;;5032280;28;20069;-78
2023/07/09 08:21:13;;;;;;;14.00;10.32;;;27.50;1.00;;;;;;5031007;28;20041;-78
2023/07/09 08:23:42;;;;;;;11.60;8.20;;;27.70;1.00;;;;;;5030387;28;20507;-79
2023/07/09 08:26:09;;;;;;;11.35;8.10;;;27.80;1.00;;;;;;5044476;28;20053;-76
2023/07/09 08:28:37;;;;;;;11.05;7.32;;;28.00;1.00;;;;;;5050358;28;20033;-76
2023/07/09 08:31:04;;;;;;;11.75;7.72;;;28.00;1.00;;;;;;5037607;28;20046;-76
2023/07/09 08:33:32;;;;;;;9.18;7.75;;;28.00;1.00;;;;;;5032372;28;20037;-75
2023/07/09 08:35:59;;;;;;;12.75;8.02;;;28.20;1.00;;;;;;5033514;28;20069;-77
2023/07/09 08:38:27;;;;;;;10.52;7.55;;;28.40;1.00;;;;;;5029825;28;20041;-77
2023/07/09 08:40:59;;;;;;;12.73;8.18;;;28.40;1.00;;;;;;5028421;28;20053;-76
2023/07/09 08:43:49;;;;;;;11.10;7.15;;;28.40;1.00;;;;;;5030247;28;20041;-77
2023/07/09 08:46:20;;;;;;;10.30;6.07;;;28.40;1.00;;;;;;5032624;28;20034;-76
2023/07/09 08:48:50;;;;;;;7.82;5.60;;;28.30;1.00;;;;;;5029605;27;20041;-78
2023/07/09 08:51:25;;;;;;;8.52;6.40;;;28.50;1.00;;;;;;5030773;28;20164;-75
2023/07/09 08:54:01;;;;;;;10.23;6.27;;;28.90;1.00;;;;;;5030104;27;20110;-76
2023/07/09 08:56:33;;;;;;;8.85;6.57;;;29.00;1.00;;;;;;5027528;27;20049;-77
2023/07/09 08:59:03;;;;;;;9.88;6.13;;;29.00;1.00;;;;;;5028040;28;20051;-76
2023/07/09 09:01:39;;;;;;;10.02;6.95;;;29.10;1.00;;;;;;5061787;28;20182;-78
2023/07/09 09:04:15;;;;;;;11.63;7.18;;;29.20;1.00;;;;;;5051500;27;20121;-76
2023/07/09 09:06:45;;;;;;;9.10;6.20;;;29.40;1.00;;;;;;5028958;28;20061;-74
2023/07/09 09:09:22;;;;;;;7.40;4.93;;;29.50;1.00;;;;;;5029510;28;20038;-76
2023/07/09 09:11:58;;;;;;;14.82;6.55;;;29.30;1.00;;;;;;5032520;28;20063;-74
2023/07/09 09:14:31;;;;;;;10.18;5.90;;;29.50;1.00;;;;;;5038318;27;20056;-74
2023/07/09 09:16:58;;;;;;;10.05;7.20;;;29.70;1.00;;;;;;5050002;28;20079;-77
2023/07/09 09:19:30;;;;;;;6.05;5.10;;;29.80;1.00;;;;;;5050757;28;20044;-75
2023/07/09 09:22:03;;;;;;;7.15;6.00;;;29.70;1.00;;;;;;5048832;28;20048;-77
2023/07/09 09:24:35;;;;;;;11.95;7.78;;;29.70;1.00;;;;;;5036523;28;20054;-76
2023/07/09 09:27:04;;;;;;;9.25;6.88;;;29.70;1.00;;;;;;5035922;28;20054;-75
2023/07/09 09:29:33;;;;;;;9.02;7.30;;;29.60;1.00;;;;;;5036697;28;20046;-76
2023/07/09 09:32:12;;;;;;;9.63;5.65;;;29.20;1.00;;;;;;5037732;28;20632;-77
2023/07/09 09:34:39;;;;;;;7.93;5.72;;;29.20;1.00;;;;;;5039564;28;20048;-76
2023/07/09 09:37:11;;;;;;;9.45;5.75;;;29.30;1.00;;;;;;5033576;28;20050;-76
2023/07/09 09:39:39;;;;;;;7.63;5.40;;;29.30;1.00;;;;;;5032910;28;20038;-77
2023/07/09 09:42:12;;;;;;;11.93;5.90;;;29.20;1.00;;;;;;5046197;28;20064;-76
2023/07/09 09:44:45;;;;;;;6.38;5.50;;;29.20;1.00;;;;;;5040995;28;20042;-78
2023/07/09 09:47:13;;;;;;;7.85;6.18;;;28.90;1.00;;;;;;5031460;28;20543;-76
2023/07/09 09:49:41;;;;;;;10.30;5.90;;;28.90;1.00;;;;;;5031090;27;20033;-76
2023/07/09 09:52:14;;;;;;;8.73;5.30;;;28.90;1.00;;;;;;5028881;28;20041;-78
2023/07/09 09:54:45;;;;;;;10.13;5.63;;;29.00;1.00;;;;;;5030570;28;20096;-75
2023/07/09 09:57:22;;;;;;;13.38;9.95;;;29.60;1.00;;;;;;5029464;28;20050;-75
2023/07/09 09:59:49;;;;;;;9.88;5.82;;;29.90;1.00;;;;;;5031088;28;20120;-76
2023/07/09 10:02:19;;;;;;;12.38;6.30;;;29.90;1.00;;;;;;5092993;27;20502;-79
2023/07/09 10:04:47;;;;;;;7.13;5.38;;;30.00;1.00;;;;;;5135221;27;20091;-77
2023/07/09 10:07:23;;;;;;;10.68;5.93;;;30.10;1.00;;;;;;5148010;27;20039;-79
2023/07/09 10:09:54;;;;;;;10.93;5.97;;;30.30;1.00;;;;;;5142127;27;20084;-75
2023/07/09 10:12:38;;;;;;;10.93;6.97;;;30.70;1.00;;;;;;5135543;27;20039;-77
2023/07/09 10:15:16;;;;;;;10.60;6.07;;;31.00;1.00;;;;;;5134480;27;20057;-77
2023/07/09 10:17:51;;;;;;;8.48;7.18;;;31.20;1.00;;;;;;5134905;27;20053;-75
2023/07/09 10:20:24;;;;;;;10.88;7.45;;;31.20;1.00;;;;;;5133514;27;20047;-77
2023/07/09 10:22:55;;;;;;;12.15;9.38;;;31.10;1.00;;;;;;5133722;27;20039;-76
2023/07/09 10:25:37;;;;;;;12.20;8.63;;;30.80;1.00;;;;;;5134185;27;20482;-77
2023/07/09 10:28:31;;;;;;;11.95;7.60;;;30.50;1.00;;;;;;5132808;27;20039;-79
2023/07/09 10:31:08;;;;;;;10.32;7.35;;;30.50;1.00;;;;;;5029079;28;20060;-76
2023/07/09 10:33:46;;;;;;;10.35;6.13;;;30.10;1.00;;;;;;5029767;28;20128;-77
2023/07/09 10:36:27;;;;;;;9.35;6.68;;;29.80;1.00;;;;;;5029259;28;20055;-77
2023/07/09 10:39:00;;;;;;;8.90;7.32;;;29.80;1.00;;;;;;5028037;28;20053;-74
2023/07/09 10:41:29;;;;;;;6.82;5.20;;;29.60;1.00;;;;;;5028064;28;20062;-76
2023/07/09 10:44:05;;;;;;;10.27;8.07;;;29.70;1.00;;;;;;5031417;28;20060;-76
2023/07/09 10:46:36;;;;;;;8.77;6.90;;;29.80;1.00;;;;;;5036672;27;20090;-76
2023/07/09 10:49:07;;;;;;;10.68;7.80;;;30.10;1.00;;;;;;5035160;28;20058;-77
2023/07/09 10:51:39;;;;;;;8.75;6.90;;;30.00;1.00;;;;;;5034576;28;20069;-78
2023/07/09 10:54:17;;;;;;;9.68;6.25;;;29.90;1.00;;;;;;5036866;28;20381;-76
2023/07/09 10:56:48;;;;;;;11.93;7.63;;;29.70;1.00;;;;;;5032943;28;20046;-77
2023/07/09 10:59:22;;;;;;;9.85;6.60;;;29.50;1.00;;;;;;5034633;28;20033;-74
2023/07/09 11:01:55;;;;;;;10.65;6.68;;;29.70;1.00;;;;;;5070067;27;20039;-75
2023/07/09 11:04:32;;;;;;;11.23;7.60;;;29.90;1.00;;;;;;5132506;27;20051;-75
2023/07/09 11:07:03;;;;;;;9.98;6.50;;;30.20;1.00;;;;;;5132084;27;20119;-76
2023/07/09 11:09:35;;;;;;;12.60;7.60;;;30.60;1.00;;;;;;5132259;27;20043;-75
2023/07/09 11:12:11;;;;;;;9.65;6.40;;;30.70;1.00;;;;;;5132126;27;20035;-75
2023/07/09 11:14:44;;;;;;;8.70;5.68;;;30.90;1.00;;;;;;5134031;27;20498;-76
2023/07/09 11:17:16;;;;;;;9.18;5.55;;;30.60;1.00;;;;;;5133276;27;20051;-77
2023/07/09 11:19:46;;;;;;;7.85;4.90;;;30.50;1.00;;;;;;5132813;27;20475;-77
2023/07/09 11:22:18;;;;;;;7.97;4.65;;;30.30;1.00;;;;;;5132250;27;20039;-77
2023/07/09 11:24:51;;;;;;;5.72;4.50;;;30.20;1.00;;;;;;5111661;27;20065;-78
2023/07/09 11:27:22;;;;;;;9.82;5.10;;;30.20;1.00;;;;;;5029054;28;20056;-76
2023/07/09 11:29:59;;;;;;;6.40;4.95;;;30.00;1.00;;;;;;5028419;27;20038;-77
2023/07/09 11:32:27;;;;;;;15.35;5.80;;;30.20;1.00;;;;;;5028499;28;20374;-77
2023/07/09 11:34:55;;;;;;;15.52;9.57;;;30.20;1.00;;;;;;5031051;28;20481;-77
2023/07/09 11:37:27;;;;;;;7.75;5.68;;;29.90;1.00;;;;;;5030986;28;20045;-77
2023/07/09 11:39:54;;;;;;;8.05;5.75;;;29.80;1.00;;;;;;5028504;28;20428;-75
2023/07/09 11:42:26;;;;;;;8.02;6.07;;;29.60;1.00;;;;;;5031381;28;20128;-76
2023/07/09 11:45:07;;;;;;;7.38;6.07;;;29.60;1.00;;;;;;5031366;28;20141;-76
2023/07/09 11:47:39;;;;;;;7.30;5.35;;;29.70;1.00;;;;;;5031888;28;20048;-78
2023/07/09 11:50:17;;;;;;;8.05;5.50;;;29.90;1.00;;;;;;5030774;28;20034;-77
2023/07/09 11:52:49;;;;;;;6.78;5.30;;;30.20;1.00;;;;;;5110598;27;20038;-77
2023/07/09 11:55:29;;;;;;;6.60;4.93;;;30.60;1.00;;;;;;5132762;27;20528;-77
2023/07/09 11:57:57;;;;;;;6.68;5.75;;;30.90;1.00;;;;;;5133429;27;20212;-77
2023/07/09 12:00:28;;;;;;;6.00;5.20;;;31.00;1.00;;;;;;5132437;27;20035;-76
2023/07/09 12:02:57;;;;;;;11.27;5.63;;;30.90;1.00;;;;;;5134768;27;20043;-78
2023/07/09 12:05:29;;;;;;;9.30;5.55;;;30.50;1.00;;;;;;5135492;27;20038;-76
2023/07/09 12:07:58;;;;;;;10.07;5.53;;;30.30;1.00;;;;;;5133787;27;20058;-75
2023/07/09 12:10:29;;;;;;;8.05;5.80;;;29.90;1.00;;;;;;5143322;27;20095;-78
2023/07/09 12:12:58;;;;;;;7.30;5.75;;;29.80;1.00;;;;;;5142007;27;20487;-78
2023/07/09 12:15:29;;;;;;;6.70;5.57;;;29.70;1.00;;;;;;5140131;27;20053;-77
2023/07/09 12:17:59;;;;;;;8.52;6.07;;;29.50;1.00;;;;;;5134578;27;20119;-77
2023/07/09 12:20:27;;;;;;;6.70;5.55;;;29.50;1.00;;;;;;5134486;27;20683;-75
2023/07/09 12:22:54;;;;;;;7.97;6.07;;;29.30;1.00;;;;;;5033588;27;20106;-75
2023/07/09 12:25:26;;;;;;;8.02;6.75;;;29.30;1.00;;;;;;5032334;27;20116;-76
2023/07/09 12:27:54;;;;;;;6.90;6.20;;;29.40;1.00;;;;;;5027857;28;20310;-75
2023/07/09 12:30:21;;;;;;;11.50;5.53;;;29.40;1.00;;;;;;5027230;28;20106;-77
2023/07/09 12:32:52;;;;;;;5.82;5.22;;;29.60;1.00;;;;;;5027076;28;20049;-77
2023/07/09 12:35:21;;;;;;;8.13;5.22;;;29.60;1.00;;;;;;5027631;28;20041;-76
2023/07/09 12:37:52;;;;;;;7.03;5.18;;;29.70;1.00;;;;;;5027578;27;20052;-78
2023/07/09 12:40:27;;;;;;;7.88;5.30;;;29.70;1.00;;;;;;5027075;28;20512;-73
2023/07/09 12:42:57;;;;;;;;;;;29.90;1.00;;;;;;5027106;28;20046;-75
2023/07/09 12:45:25;;;;;;;7.93;6.40;;;30.20;1.00;;;;;;5029160;28;20012;-78
2023/07/09 12:47:55;;;;;;;8.27;6.25;;;30.40;1.00;;;;;;5032281;27;20041;-74
2023/07/09 12:50:30;;;;;;;9.27;7.07;;;30.60;1.00;;;;;;5043269;28;20047;-75
2023/07/09 12:53:03;;;;;;;7.85;6.03;;;30.70;1.00;;;;;;5046774;28;20052;-77
2023/07/09 12:55:38;;;;;;;6.20;5.40;;;30.70;1.00;;;;;;5041186;28;20258;-75
2023/07/09 12:58:11;;;;;;;6.25;5.30;;;30.60;1.00;;;;;;5036720;28;20045;-74
2023/07/09 13:00:38;;;;;;;5.82;4.85;;;30.50;1.00;;;;;;5037051;28;20275;-75
2023/07/09 13:03:15;;;;;;;5.53;4.93;;;30.20;1.00;;;;;;5033027;27;20507;-75
2023/07/09 13:05:54;;;;;;;6.93;5.30;;;30.10;1.00;;;;;;5032737;28;20045;-75